Decoded Metar for KGGI (GRINNELL REG in IA, USA) (IATA:GGI) | Meteo·Mobile Aviation Weather
aviador You're here:

KGGI Decoded Metar

GRINNELL REG in IA, USA
Report Time2019-06-27 08:35:00
UTC Time2019-06-27 08:44:05
Flight Rules vfr VFR
Wind200° at 05 kt
W.Decomp.*RWY 13: 1.9 kt HW 4.6 kt RCW
Visibility9999 m
Phenomena:N/A
Clouds:N/A
Expected CloudBase > 800 ft AGL from Temp-Dew spread
CeilingNone
Temp21°C (ISA +8)
Dew Point19°C (88% RH)
QNH1019 hPa
Density Alt2,034 ft
Elevation1,007 ft
Report Wrong Elevation
Raw Report
KGGI 270835Z AUTO 20005KT 10SM CLR 21/19 A3009 RMK AO2
T02100190=

Extra information for KGGI:More info

Metar Taf Metar & Taf Last 4 Metars F.Rules Stats Wind Profile Meteogram Temp Stats Airport Information Weather charts Add Link Nearby VenuesMetar ALERT Operation Metar Decoded Social comments

AIRNAV info for KGGI